sensor_id;sensor_type;location;lat;lon;timestamp;pressure;altitude;pressure_sealevel;temperature;humidity
21129;BME280;10722;51.910;8.352;2023-01-27T00:00:13;101615.72;;;1.67;100.00
21129;BME280;10722;51.910;8.352;2023-01-27T00:02:59;101618.53;;;1.71;100.00
21129;BME280;10722;51.910;8.352;2023-01-27T00:05:45;101614.97;;;1.81;100.00
21129;BME280;10722;51.910;8.352;2023-01-27T00:08:30;101619.88;;;1.78;100.00
21129;BME280;10722;51.910;8.352;2023-01-27T00:11:15;101620.63;;;1.77;100.00
21129;BME280;10722;51.910;8.352;2023-01-27T00:14:01;101618.19;;;1.78;100.00
21129;BME280;10722;51.910;8.352;2023-01-27T00:16:46;101614.25;;;1.70;100.00
21129;BME280;10722;51.910;8.352;2023-01-27T00:19:32;101613.25;;;1.68;100.00
21129;BME280;10722;51.910;8.352;2023-01-27T00:22:16;101614.84;;;1.79;100.00
21129;BME280;10722;51.910;8.352;2023-01-27T00:25:01;101613.09;;;1.78;100.00
21129;BME280;10722;51.910;8.352;2023-01-27T00:27:47;101614.16;;;1.82;100.00
21129;BME280;10722;51.910;8.352;2023-01-27T00:30:32;101610.75;;;1.82;100.00
21129;BME280;10722;51.910;8.352;2023-01-27T00:33:16;101608.72;;;1.89;100.00
21129;BME280;10722;51.910;8.352;2023-01-27T00:36:06;101607.19;;;1.79;100.00
21129;BME280;10722;51.910;8.352;2023-01-27T00:38:52;101607.72;;;1.87;100.00
21129;BME280;10722;51.910;8.352;2023-01-27T00:41:38;101604.84;;;1.83;100.00
21129;BME280;10722;51.910;8.352;2023-01-27T00:44:24;101606.25;;;1.91;100.00
21129;BME280;10722;51.910;8.352;2023-01-27T00:47:09;101602.13;;;1.93;100.00
21129;BME280;10722;51.910;8.352;2023-01-27T00:49:54;101597.63;;;2.02;100.00
21129;BME280;10722;51.910;8.352;2023-01-27T00:52:39;101590.75;;;2.01;100.00
21129;BME280;10722;51.910;8.352;2023-01-27T00:55:25;101598.09;;;1.96;100.00
21129;BME280;10722;51.910;8.352;2023-01-27T00:58:10;101585.66;;;2.01;100.00
21129;BME280;10722;51.910;8.352;2023-01-27T01:00:56;101595.38;;;2.07;100.00
21129;BME280;10722;51.910;8.352;2023-01-27T01:03:43;101596.66;;;2.00;100.00
21129;BME280;10722;51.910;8.352;2023-01-27T01:06:28;101589.41;;;2.06;100.00
21129;BME280;10722;51.910;8.352;2023-01-27T01:09:14;101592.84;;;2.07;100.00
21129;BME280;10722;51.910;8.352;2023-01-27T01:11:59;101594.50;;;2.06;100.00
21129;BME280;10722;51.910;8.352;2023-01-27T01:14:45;101600.97;;;2.01;100.00
21129;BME280;10722;51.910;8.352;2023-01-27T01:17:30;101595.06;;;2.02;100.00
21129;BME280;10722;51.910;8.352;2023-01-27T01:20:15;101584.00;;;2.15;100.00
21129;BME280;10722;51.910;8.352;2023-01-27T01:23:00;101597.81;;;2.05;100.00
21129;BME280;10722;51.910;8.352;2023-01-27T01:25:53;101594.69;;;1.96;100.00
21129;BME280;10722;51.910;8.352;2023-01-27T01:28:38;101595.34;;;1.93;100.00
21129;BME280;10722;51.910;8.352;2023-01-27T01:31:24;101592.44;;;2.00;100.00
21129;BME280;10722;51.910;8.352;2023-01-27T01:34:09;101605.09;;;1.99;100.00
21129;BME280;10722;51.910;8.352;2023-01-27T01:36:54;101607.75;;;2.00;100.00
21129;BME280;10722;51.910;8.352;2023-01-27T01:39:39;101596.25;;;2.07;100.00
21129;BME280;10722;51.910;8.352;2023-01-27T01:42:24;101594.19;;;2.01;100.00
21129;BME280;10722;51.910;8.352;2023-01-27T01:51:31;101595.88;;;2.01;100.00
21129;BME280;10722;51.910;8.352;2023-01-27T01:54:26;101595.38;;;2.07;100.00
21129;BME280;10722;51.910;8.352;2023-01-27T01:57:26;101595.28;;;2.05;100.00
21129;BME280;10722;51.910;8.352;2023-01-27T02:00:15;101587.06;;;2.09;100.00
21129;BME280;10722;51.910;8.352;2023-01-27T02:03:01;101590.38;;;2.08;100.00
21129;BME280;10722;51.910;8.352;2023-01-27T02:05:47;101592.72;;;2.05;100.00
21129;BME280;10722;51.910;8.352;2023-01-27T02:08:37;101596.94;;;2.05;100.00
21129;BME280;10722;51.910;8.352;2023-01-27T02:11:22;101591.75;;;2.16;100.00
21129;BME280;10722;51.910;8.352;2023-01-27T02:14:09;101590.69;;;2.13;100.00
21129;BME280;10722;51.910;8.352;2023-01-27T02:16:56;101588.31;;;2.16;100.00
21129;BME280;10722;51.910;8.352;2023-01-27T02:23:05;101596.78;;;2.15;100.00
21129;BME280;10722;51.910;8.352;2023-01-27T02:28:38;101592.94;;;2.21;100.00
21129;BME280;10722;51.910;8.352;2023-01-27T02:31:23;101597.47;;;2.26;100.00
21129;BME280;10722;51.910;8.352;2023-01-27T02:34:12;101596.38;;;2.22;100.00
21129;BME280;10722;51.910;8.352;2023-01-27T02:37:04;101595.69;;;2.24;100.00
21129;BME280;10722;51.910;8.352;2023-01-27T02:39:52;101594.63;;;2.21;100.00
21129;BME280;10722;51.910;8.352;2023-01-27T02:42:38;101592.25;;;2.11;100.00
21129;BME280;10722;51.910;8.352;2023-01-27T02:45:23;101602.09;;;2.18;100.00
21129;BME280;10722;51.910;8.352;2023-01-27T02:48:08;101598.25;;;2.11;100.00
21129;BME280;10722;51.910;8.352;2023-01-27T02:50:53;101597.78;;;2.17;100.00
21129;BME280;10722;51.910;8.352;2023-01-27T02:53:38;101598.84;;;2.20;100.00
21129;BME280;10722;51.910;8.352;2023-01-27T02:56:23;101600.78;;;2.24;100.00
21129;BME280;10722;51.910;8.352;2023-01-27T02:59:08;101598.94;;;2.35;100.00
21129;BME280;10722;51.910;8.352;2023-01-27T03:01:54;101602.38;;;2.36;100.00
21129;BME280;10722;51.910;8.352;2023-01-27T03:04:39;101608.66;;;2.41;100.00
21129;BME280;10722;51.910;8.352;2023-01-27T03:07:25;101608.66;;;2.41;100.00
21129;BME280;10722;51.910;8.352;2023-01-27T03:10:10;101611.22;;;2.41;100.00
21129;BME280;10722;51.910;8.352;2023-01-27T03:12:55;101616.16;;;2.51;100.00
21129;BME280;10722;51.910;8.352;2023-01-27T03:15:41;101618.88;;;2.41;100.00
21129;BME280;10722;51.910;8.352;2023-01-27T03:18:26;101618.88;;;2.41;100.00
21129;BME280;10722;51.910;8.352;2023-01-27T03:21:12;101616.03;;;2.50;100.00
21129;BME280;10722;51.910;8.352;2023-01-27T03:23:59;101622.50;;;2.44;100.00
21129;BME280;10722;51.910;8.352;2023-01-27T03:26:45;101618.00;;;2.40;100.00
21129;BME280;10722;51.910;8.352;2023-01-27T03:29:30;101619.28;;;2.47;100.00
21129;BME280;10722;51.910;8.352;2023-01-27T03:32:15;101615.16;;;2.49;100.00
21129;BME280;10722;51.910;8.352;2023-01-27T03:35:01;101616.53;;;2.57;100.00
21129;BME280;10722;51.910;8.352;2023-01-27T03:37:46;101619.28;;;2.60;100.00
21129;BME280;10722;51.910;8.352;2023-01-27T03:40:31;101625.38;;;2.62;100.00
21129;BME280;10722;51.910;8.352;2023-01-27T03:43:17;101626.16;;;2.61;100.00
21129;BME280;10722;51.910;8.352;2023-01-27T03:46:02;101621.16;;;2.63;100.00
21129;BME280;10722;51.910;8.352;2023-01-27T03:48:53;101619.09;;;2.57;100.00
21129;BME280;10722;51.910;8.352;2023-01-27T03:51:39;101619.28;;;2.47;100.00
21129;BME280;10722;51.910;8.352;2023-01-27T03:54:24;101620.09;;;2.59;100.00
21129;BME280;10722;51.910;8.352;2023-01-27T03:57:09;101622.44;;;2.56;100.00
21129;BME280;10722;51.910;8.352;2023-01-27T03:59:54;101615.66;;;2.57;100.00
21129;BME280;10722;51.910;8.352;2023-01-27T04:02:39;101620.16;;;2.47;100.00
21129;BME280;10722;51.910;8.352;2023-01-27T04:05:24;101629.13;;;2.54;100.00
21129;BME280;10722;51.910;8.352;2023-01-27T04:08:09;101636.38;;;2.48;100.00
21129;BME280;10722;51.910;8.352;2023-01-27T04:11:01;101625.69;;;2.54;100.00
21129;BME280;10722;51.910;8.352;2023-01-27T04:13:46;101617.91;;;2.65;100.00
21129;BME280;10722;51.910;8.352;2023-01-27T04:16:31;101623.50;;;2.60;100.00
21129;BME280;10722;51.910;8.352;2023-01-27T04:19:17;101622.16;;;2.65;100.00
21129;BME280;10722;51.910;8.352;2023-01-27T04:22:03;101625.56;;;2.65;100.00
21129;BME280;10722;51.910;8.352;2023-01-27T04:24:48;101631.00;;;2.57;100.00
21129;BME280;10722;51.910;8.352;2023-01-27T04:27:33;101632.56;;;2.55;100.00
21129;BME280;10722;51.910;8.352;2023-01-27T04:30:18;101630.97;;;2.43;100.00
21129;BME280;10722;51.910;8.352;2023-01-27T04:33:03;101637.38;;;2.37;100.00
21129;BME280;10722;51.910;8.352;2023-01-27T04:35:49;101636.97;;;2.44;100.00
21129;BME280;10722;51.910;8.352;2023-01-27T04:38:33;101641.06;;;2.42;100.00
21129;BME280;10722;51.910;8.352;2023-01-27T04:41:18;101655.03;;;2.34;100.00
21129;BME280;10722;51.910;8.352;2023-01-27T04:44:04;101658.47;;;2.47;100.00
21129;BME280;10722;51.910;8.352;2023-01-27T04:46:56;101651.59;;;2.46;100.00
21129;BME280;10722;51.910;8.352;2023-01-27T04:49:41;101646.00;;;2.39;100.00
21129;BME280;10722;51.910;8.352;2023-01-27T04:52:26;101660.81;;;2.44;100.00
21129;BME280;10722;51.910;8.352;2023-01-27T04:55:11;101661.44;;;2.54;100.00
21129;BME280;10722;51.910;8.352;2023-01-27T04:58:00;101664.75;;;2.53;100.00
21129;BME280;10722;51.910;8.352;2023-01-27T05:00:44;101658.69;;;2.51;100.00
21129;BME280;10722;51.910;8.352;2023-01-27T05:03:30;101663.88;;;2.52;100.00
21129;BME280;10722;51.910;8.352;2023-01-27T05:06:15;101666.84;;;2.58;100.00
21129;BME280;10722;51.910;8.352;2023-01-27T05:09:01;101663.31;;;2.56;100.00
21129;BME280;10722;51.910;8.352;2023-01-27T05:11:46;101664.59;;;2.63;100.00
21129;BME280;10722;51.910;8.352;2023-01-27T05:14:35;101676.28;;;2.73;100.00
21129;BME280;10722;51.910;8.352;2023-01-27T05:17:32;101670.41;;;2.74;100.00
21129;BME280;10722;51.910;8.352;2023-01-27T05:20:18;101660.06;;;2.72;100.00
21129;BME280;10722;51.910;8.352;2023-01-27T05:23:03;101665.78;;;2.68;100.00
21129;BME280;10722;51.910;8.352;2023-01-27T05:25:51;101666.53;;;2.67;100.00
21129;BME280;10722;51.910;8.352;2023-01-27T05:28:37;101662.13;;;2.64;100.00
21129;BME280;10722;51.910;8.352;2023-01-27T05:31:30;101669.38;;;2.58;100.00
21129;BME280;10722;51.910;8.352;2023-01-27T05:34:16;101678.25;;;2.63;100.00
21129;BME280;10722;51.910;8.352;2023-01-27T05:37:01;101666.72;;;2.70;100.00
21129;BME280;10722;51.910;8.352;2023-01-27T05:39:46;101666.25;;;2.62;100.00
21129;BME280;10722;51.910;8.352;2023-01-27T05:42:31;101665.47;;;2.63;100.00
21129;BME280;10722;51.910;8.352;2023-01-27T05:45:19;101675.50;;;2.60;100.00
21129;BME280;10722;51.910;8.352;2023-01-27T05:48:06;101668.91;;;2.64;100.00
21129;BME280;10722;51.910;8.352;2023-01-27T05:50:57;101682.28;;;2.60;100.00
21129;BME280;10722;51.910;8.352;2023-01-27T05:53:43;101686.91;;;2.65;100.00
21129;BME280;10722;51.910;8.352;2023-01-27T05:56:28;101689.16;;;2.61;100.00
21129;BME280;10722;51.910;8.352;2023-01-27T05:59:13;101685.09;;;2.64;100.00
21129;BME280;10722;51.910;8.352;2023-01-27T06:02:11;101686.50;;;2.59;100.00
21129;BME280;10722;51.910;8.352;2023-01-27T06:05:07;101694.38;;;2.62;100.00
21129;BME280;10722;51.910;8.352;2023-01-27T06:07:52;101702.91;;;2.63;100.00
21129;BME280;10722;51.910;8.352;2023-01-27T06:10:39;101697.81;;;2.63;100.00
21129;BME280;10722;51.910;8.352;2023-01-27T06:13:27;101705.66;;;2.66;100.00
21129;BME280;10722;51.910;8.352;2023-01-27T06:16:35;101702.91;;;2.63;100.00
21129;BME280;10722;51.910;8.352;2023-01-27T06:19:20;101719.50;;;2.69;100.00
21129;BME280;10722;51.910;8.352;2023-01-27T06:22:05;101726.13;;;2.79;100.00
21129;BME280;10722;51.910;8.352;2023-01-27T06:24:51;101724.63;;;2.69;100.00
21129;BME280;10722;51.910;8.352;2023-01-27T06:27:36;101725.31;;;2.67;100.00
21129;BME280;10722;51.910;8.352;2023-01-27T06:30:22;101733.28;;;2.72;100.00
21129;BME280;10722;51.910;8.352;2023-01-27T06:33:09;101741.94;;;2.74;100.00
21129;BME280;10722;51.910;8.352;2023-01-27T06:36:03;101736.84;;;2.74;100.00
21129;BME280;10722;51.910;8.352;2023-01-27T06:38:49;101739.59;;;2.77;100.00
21129;BME280;10722;51.910;8.352;2023-01-27T06:41:37;101736.53;;;2.82;100.00
21129;BME280;10722;51.910;8.352;2023-01-27T06:44:22;101738.00;;;2.79;100.00
21129;BME280;10722;51.910;8.352;2023-01-27T06:47:08;101744.78;;;2.78;100.00
21129;BME280;10722;51.910;8.352;2023-01-27T06:49:53;101746.66;;;2.81;100.00
21129;BME280;10722;51.910;8.352;2023-01-27T06:52:39;101742.13;;;2.77;100.00
21129;BME280;10722;51.910;8.352;2023-01-27T06:55:24;101751.75;;;2.81;100.00
21129;BME280;10722;51.910;8.352;2023-01-27T06:58:11;101755.00;;;2.78;100.00
21129;BME280;10722;51.910;8.352;2023-01-27T07:00:56;101752.84;;;2.84;100.00
21129;BME280;10722;51.910;8.352;2023-01-27T07:03:41;101753.25;;;2.77;100.00
21129;BME280;10722;51.910;8.352;2023-01-27T07:06:28;101766.69;;;2.75;100.00
21129;BME280;10722;51.910;8.352;2023-01-27T07:09:14;101766.09;;;2.79;100.00
21129;BME280;10722;51.910;8.352;2023-01-27T07:11:59;101768.66;;;2.79;100.00
21129;BME280;10722;51.910;8.352;2023-01-27T07:14:44;101772.81;;;2.77;100.00
21129;BME280;10722;51.910;8.352;2023-01-27T07:17:29;101760.31;;;2.81;100.00
21129;BME280;10722;51.910;8.352;2023-01-27T07:20:15;101781.25;;;2.76;100.00
21129;BME280;10722;51.910;8.352;2023-01-27T07:23:02;101781.44;;;2.79;100.00
21129;BME280;10722;51.910;8.352;2023-01-27T07:25:47;101786.06;;;2.84;100.00
21129;BME280;10722;51.910;8.352;2023-01-27T07:28:33;101786.19;;;2.86;100.00
21129;BME280;10722;51.910;8.352;2023-01-27T07:31:18;101790.13;;;2.94;100.00
21129;BME280;10722;51.910;8.352;2023-01-27T07:34:04;101796.59;;;2.89;100.00
21129;BME280;10722;51.910;8.352;2023-01-27T07:36:50;101803.47;;;2.90;100.00
21129;BME280;10722;51.910;8.352;2023-01-27T07:39:35;101788.84;;;3.01;100.00
21129;BME280;10722;51.910;8.352;2023-01-27T07:42:21;101795.44;;;2.97;100.00
21129;BME280;10722;51.910;8.352;2023-01-27T07:45:06;101784.81;;;2.91;100.00
21129;BME280;10722;51.910;8.352;2023-01-27T07:47:52;101785.31;;;2.99;100.00
21129;BME280;10722;51.910;8.352;2023-01-27T07:50:38;101795.44;;;2.97;100.00
21129;BME280;10722;51.910;8.352;2023-01-27T07:53:24;101793.97;;;3.01;100.00
21129;BME280;10722;51.910;8.352;2023-01-27T07:56:09;101795.25;;;3.07;100.00
21129;BME280;10722;51.910;8.352;2023-01-27T07:58:54;101799.56;;;2.95;100.00
21129;BME280;10722;51.910;8.352;2023-01-27T08:01:39;101797.38;;;3.01;100.00
21129;BME280;10722;51.910;8.352;2023-01-27T08:04:24;101803.22;;;2.99;100.00
21129;BME280;10722;51.910;8.352;2023-01-27T08:07:09;101803.00;;;2.96;100.00
21129;BME280;10722;51.910;8.352;2023-01-27T08:09:54;101812.72;;;3.01;100.00
21129;BME280;10722;51.910;8.352;2023-01-27T08:12:39;101818.84;;;3.03;100.00
21129;BME280;10722;51.910;8.352;2023-01-27T08:15:24;101816.97;;;3.01;100.00
21129;BME280;10722;51.910;8.352;2023-01-27T08:18:09;101819.84;;;3.05;100.00
21129;BME280;10722;51.910;8.352;2023-01-27T08:20:58;101824.16;;;3.06;100.00
21129;BME280;10722;51.910;8.352;2023-01-27T08:23:44;101827.91;;;3.11;100.00
21129;BME280;10722;51.910;8.352;2023-01-27T08:26:29;101830.66;;;3.14;100.00
21129;BME280;10722;51.910;8.352;2023-01-27T08:29:14;101828.50;;;3.21;100.00
21129;BME280;10722;51.910;8.352;2023-01-27T08:31:59;101826.13;;;3.24;100.00
21129;BME280;10722;51.910;8.352;2023-01-27T08:34:44;101828.69;;;3.24;100.00
21129;BME280;10722;51.910;8.352;2023-01-27T08:37:29;101828.59;;;3.09;100.00
21129;BME280;10722;51.910;8.352;2023-01-27T08:40:15;101835.56;;;3.11;100.00
21129;BME280;10722;51.910;8.352;2023-01-27T08:43:00;101822.41;;;3.19;100.00
21129;BME280;10722;51.910;8.352;2023-01-27T08:45:51;101830.75;;;3.16;100.00
21129;BME280;10722;51.910;8.352;2023-01-27T08:48:36;101840.38;;;3.07;100.00
21129;BME280;10722;51.910;8.352;2023-01-27T08:51:22;101841.69;;;3.13;100.00
21129;BME280;10722;51.910;8.352;2023-01-27T08:54:07;101844.31;;;3.15;100.00
21129;BME280;10722;51.910;8.352;2023-01-27T08:56:53;101851.03;;;3.13;100.00
21129;BME280;10722;51.910;8.352;2023-01-27T08:59:38;101850.13;;;3.12;100.00
21129;BME280;10722;51.910;8.352;2023-01-27T09:02:23;101858.69;;;3.13;100.00
21129;BME280;10722;51.910;8.352;2023-01-27T09:05:09;101853.66;;;3.14;100.00
21129;BME280;10722;51.910;8.352;2023-01-27T09:07:54;101861.66;;;3.19;100.00
21129;BME280;10722;51.910;8.352;2023-01-27T09:10:40;101865.19;;;3.21;100.00
21129;BME280;10722;51.910;8.352;2023-01-27T09:13:25;101865.47;;;3.12;100.00
21129;BME280;10722;51.910;8.352;2023-01-27T09:16:10;101864.56;;;3.12;100.00
21129;BME280;10722;51.910;8.352;2023-01-27T09:18:56;101874.13;;;3.14;100.00
21129;BME280;10722;51.910;8.352;2023-01-27T09:21:41;101871.88;;;3.19;100.00
21129;BME280;10722;51.910;8.352;2023-01-27T09:24:27;101872.06;;;3.09;100.00
21129;BME280;10722;51.910;8.352;2023-01-27T09:27:12;101871.66;;;3.03;100.00
21129;BME280;10722;51.910;8.352;2023-01-27T09:29:58;101878.25;;;2.99;100.00
21129;BME280;10722;51.910;8.352;2023-01-27T09:32:43;101879.78;;;2.97;100.00
21129;BME280;10722;51.910;8.352;2023-01-27T09:35:34;101877.44;;;3.00;100.00
21129;BME280;10722;51.910;8.352;2023-01-27T09:38:21;101883.63;;;3.04;100.00
21129;BME280;10722;51.910;8.352;2023-01-27T09:50:47;101889.28;;;3.11;100.00
21129;BME280;10722;51.910;8.352;2023-01-27T09:53:52;101889.66;;;3.04;100.00
21129;BME280;10722;51.910;8.352;2023-01-27T09:56:59;101892.03;;;3.14;100.00
21129;BME280;10722;51.910;8.352;2023-01-27T10:02:44;101889.38;;;3.13;100.00
21129;BME280;10722;51.910;8.352;2023-01-27T10:06:12;101889.19;;;3.23;100.00
21129;BME280;10722;51.910;8.352;2023-01-27T10:09:05;101893.81;;;3.29;100.00
21129;BME280;10722;51.910;8.352;2023-01-27T10:26:54;101882.81;;;3.70;100.00
21129;BME280;10722;51.910;8.352;2023-01-27T10:30:12;101874.53;;;3.74;100.00
21129;BME280;10722;51.910;8.352;2023-01-27T10:33:10;101877.50;;;3.67;100.00
21129;BME280;10722;51.910;8.352;2023-01-27T10:36:13;101878.31;;;3.52;100.00
21129;BME280;10722;51.910;8.352;2023-01-27T10:39:30;101868.44;;;3.45;100.00
21129;BME280;10722;51.910;8.352;2023-01-27T10:52:03;101874.47;;;3.59;100.00
21129;BME280;10722;51.910;8.352;2023-01-27T10:55:00;101870.81;;;3.55;100.00
21129;BME280;10722;51.910;8.352;2023-01-27T10:57:57;101866.28;;;3.51;100.00
21129;BME280;10722;51.910;8.352;2023-01-27T11:00:45;101862.47;;;3.58;100.00
21129;BME280;10722;51.910;8.352;2023-01-27T11:04:01;101865.31;;;3.49;100.00
21129;BME280;10722;51.910;8.352;2023-01-27T11:06:48;101861.16;;;3.51;100.00
21129;BME280;10722;51.910;8.352;2023-01-27T11:09:43;101853.78;;;3.29;100.00
21129;BME280;10722;51.910;8.352;2023-01-27T11:12:34;101849.75;;;3.33;100.00
21129;BME280;10722;51.910;8.352;2023-01-27T11:15:32;101846.50;;;3.22;100.00
21129;BME280;10722;51.910;8.352;2023-01-27T11:18:22;101848.16;;;3.35;100.00
21129;BME280;10722;51.910;8.352;2023-01-27T11:21:15;101843.56;;;3.43;100.00
21129;BME280;10722;51.910;8.352;2023-01-27T11:24:15;101838.53;;;3.44;100.00
21129;BME280;10722;51.910;8.352;2023-01-27T11:27:17;101833.63;;;3.47;100.00
21129;BME280;10722;51.910;8.352;2023-01-27T11:30:17;101827.50;;;3.45;100.00
21129;BME280;10722;51.910;8.352;2023-01-27T11:33:17;101830.06;;;3.45;100.00
21129;BME280;10722;51.910;8.352;2023-01-27T11:36:03;101832.75;;;3.47;100.00
21129;BME280;10722;51.910;8.352;2023-01-27T11:38:48;101826.03;;;3.49;100.00
21129;BME280;10722;51.910;8.352;2023-01-27T11:41:36;101830.06;;;3.58;100.00
21129;BME280;10722;51.910;8.352;2023-01-27T11:44:28;101824.75;;;3.55;100.00
21129;BME280;10722;51.910;8.352;2023-01-27T11:47:22;101822.41;;;3.58;100.00
21129;BME280;10722;51.910;8.352;2023-01-27T11:50:17;101825.84;;;3.46;100.00
21129;BME280;10722;51.910;8.352;2023-01-27T11:53:27;101825.53;;;3.54;100.00
21129;BME280;10722;51.910;8.352;2023-01-27T11:56:21;101816.66;;;3.63;100.00
21129;BME280;10722;51.910;8.352;2023-01-27T11:59:12;101816.22;;;3.55;100.00
21129;BME280;10722;51.910;8.352;2023-01-27T12:05:05;101812.94;;;3.57;100.00
21129;BME280;10722;51.910;8.352;2023-01-27T12:07:58;101807.25;;;3.48;100.00
21129;BME280;10722;51.910;8.352;2023-01-27T12:10:44;101803.50;;;3.56;100.00
21129;BME280;10722;51.910;8.352;2023-01-27T12:13:29;101806.94;;;3.57;100.00
21129;BME280;10722;51.910;8.352;2023-01-27T12:16:14;101803.31;;;3.53;100.00
21129;BME280;10722;51.910;8.352;2023-01-27T12:19:04;101809.59;;;3.45;100.00
21129;BME280;10722;51.910;8.352;2023-01-27T12:22:01;101804.59;;;3.47;100.00
21129;BME280;10722;51.910;8.352;2023-01-27T12:24:59;101810.00;;;3.51;100.00
21129;BME280;10722;51.910;8.352;2023-01-27T12:27:51;101795.81;;;3.56;100.00
21129;BME280;10722;51.910;8.352;2023-01-27T12:30:37;101796.00;;;3.59;100.00
21129;BME280;10722;51.910;8.352;2023-01-27T12:33:27;101798.75;;;3.63;100.00
21129;BME280;10722;51.910;8.352;2023-01-27T12:36:15;101796.00;;;3.59;100.00
21129;BME280;10722;51.910;8.352;2023-01-27T12:39:00;101795.44;;;3.50;100.00
21129;BME280;10722;51.910;8.352;2023-01-27T12:41:46;101791.88;;;3.48;100.00
21129;BME280;10722;51.910;8.352;2023-01-27T12:44:43;101792.88;;;3.50;100.00
21129;BME280;10722;51.910;8.352;2023-01-27T12:47:29;101789.34;;;3.48;100.00
21129;BME280;10722;51.910;8.352;2023-01-27T12:50:22;101793.13;;;3.68;100.00
21129;BME280;10722;51.910;8.352;2023-01-27T12:53:14;101789.31;;;3.75;100.00
21129;BME280;10722;51.910;8.352;2023-01-27T13:01:38;101775.91;;;3.66;100.00
21129;BME280;10722;51.910;8.352;2023-01-27T13:04:24;101775.69;;;3.76;100.00
21129;BME280;10722;51.910;8.352;2023-01-27T13:07:16;101777.91;;;3.98;100.00
21129;BME280;10722;51.910;8.352;2023-01-27T13:10:05;101771.06;;;4.12;100.00
21129;BME280;10722;51.910;8.352;2023-01-27T13:12:56;101766.31;;;4.18;100.00
21129;BME280;10722;51.910;8.352;2023-01-27T13:15:51;101762.00;;;4.17;100.00
21129;BME280;10722;51.910;8.352;2023-01-27T13:18:36;101761.38;;;3.93;100.00
21129;BME280;10722;51.910;8.352;2023-01-27T13:21:26;101762.81;;;4.02;100.00
21129;BME280;10722;51.910;8.352;2023-01-27T13:24:30;101760.13;;;3.86;100.00
21129;BME280;10722;51.910;8.352;2023-01-27T13:27:19;101766.13;;;3.87;100.00
21129;BME280;10722;51.910;8.352;2023-01-27T13:36:38;101776.72;;;3.65;100.00
21129;BME280;10722;51.910;8.352;2023-01-27T13:42:49;101783.44;;;3.49;100.00
21129;BME280;10722;51.910;8.352;2023-01-27T13:45:44;101801.25;;;3.48;100.00
21129;BME280;10722;51.910;8.352;2023-01-27T13:48:36;101796.63;;;3.55;100.00
21129;BME280;10722;51.910;8.352;2023-01-27T13:51:26;101801.91;;;3.72;100.00
21129;BME280;10722;51.910;8.352;2023-01-27T13:54:14;101799.84;;;3.66;100.00
21129;BME280;10722;51.910;8.352;2023-01-27T14:00:11;101798.56;;;3.73;100.00
21129;BME280;10722;51.910;8.352;2023-01-27T14:11:44;101808.03;;;3.61;100.00
21129;BME280;10722;51.910;8.352;2023-01-27T14:14:43;101808.22;;;3.64;100.00
21129;BME280;10722;51.910;8.352;2023-01-27T14:20:44;101814.53;;;3.55;100.00
21129;BME280;10722;51.910;8.352;2023-01-27T14:23:49;101812.09;;;3.44;100.00
21129;BME280;10722;51.910;8.352;2023-01-27T14:26:47;101813.47;;;3.39;100.00
21129;BME280;10722;51.910;8.352;2023-01-27T14:32:53;101816.41;;;3.45;100.00
21129;BME280;10722;51.910;8.352;2023-01-27T14:35:55;101829.09;;;3.56;100.00
21129;BME280;10722;51.910;8.352;2023-01-27T14:38:58;101812.78;;;3.41;100.00
21129;BME280;10722;51.910;8.352;2023-01-27T14:42:00;101821.09;;;3.52;100.00
21129;BME280;10722;51.910;8.352;2023-01-27T14:44:59;101822.22;;;3.55;100.00
21129;BME280;10722;51.910;8.352;2023-01-27T14:50:45;101820.13;;;3.36;100.00
21129;BME280;10722;51.910;8.352;2023-01-27T15:06:47;101851.91;;;3.13;100.00
21129;BME280;10722;51.910;8.352;2023-01-27T15:16:08;101862.09;;;3.00;100.00
21129;BME280;10722;51.910;8.352;2023-01-27T15:25:21;101867.63;;;3.06;100.00
21129;BME280;10722;51.910;8.352;2023-01-27T15:28:10;101866.66;;;3.04;100.00
21129;BME280;10722;51.910;8.352;2023-01-27T15:34:15;101870.56;;;3.12;100.00
21129;BME280;10722;51.910;8.352;2023-01-27T15:37:24;101872.72;;;3.06;100.00
21129;BME280;10722;51.910;8.352;2023-01-27T15:40:14;101884.22;;;3.00;100.00
21129;BME280;10722;51.910;8.352;2023-01-27T15:43:03;101883.56;;;3.02;100.00
21129;BME280;10722;51.910;8.352;2023-01-27T15:45:54;101883.56;;;3.02;100.00
21129;BME280;10722;51.910;8.352;2023-01-27T15:48:41;101878.72;;;3.07;100.00
21129;BME280;10722;51.910;8.352;2023-01-27T15:51:30;101881.19;;;3.05;100.00
21129;BME280;10722;51.910;8.352;2023-01-27T15:54:23;101885.91;;;2.99;100.00
21129;BME280;10722;51.910;8.352;2023-01-27T15:57:35;101896.91;;;2.98;100.00
21129;BME280;10722;51.910;8.352;2023-01-27T16:00:32;101903.13;;;3.02;100.00
21129;BME280;10722;51.910;8.352;2023-01-27T16:03:29;101916.38;;;2.96;100.00
21129;BME280;10722;51.910;8.352;2023-01-27T16:06:24;101920.97;;;2.88;100.00
21129;BME280;10722;51.910;8.352;2023-01-27T16:09:29;101920.28;;;2.91;100.00
21129;BME280;10722;51.910;8.352;2023-01-27T16:23:50;101936.72;;;2.69;100.00
21129;BME280;10722;51.910;8.352;2023-01-27T16:32:34;101933.31;;;2.57;100.00
21129;BME280;10722;51.910;8.352;2023-01-27T16:35:20;101934.63;;;2.64;100.00
21129;BME280;10722;51.910;8.352;2023-01-27T16:38:21;101929.97;;;2.58;100.00
21129;BME280;10722;51.910;8.352;2023-01-27T16:41:19;101925.50;;;2.67;100.00
21129;BME280;10722;51.910;8.352;2023-01-27T16:47:00;101918.31;;;2.62;100.00
21129;BME280;10722;51.910;8.352;2023-01-27T16:50:00;101921.09;;;2.65;100.00
21129;BME280;10722;51.910;8.352;2023-01-27T16:52:46;101924.31;;;2.62;100.00
21129;BME280;10722;51.910;8.352;2023-01-27T16:56:02;101917.81;;;2.67;100.00
21129;BME280;10722;51.910;8.352;2023-01-27T16:58:48;101913.50;;;2.66;100.00
21129;BME280;10722;51.910;8.352;2023-01-27T17:01:44;101915.06;;;2.64;100.00